Time;durP1;ratioP1;P1;durP2;ratioP2;P2;SDS_P1;SDS_P2;PMS_P1;PMS_P2;Temp;Humidity;BMP_temperature;BMP_pressure;BME280_temperature;BME280_humidity;BME280_pressure;Samples;Min_cycle;Max_cycle;Signal;HPM_P1;HPM_P2
2022/05/05 00:01:24;;;;;;;4.80;2.67;;;;;;;;;;4954570;29;20043;-63
2022/05/05 00:03:55;;;;;;;6.28;2.55;;;;;;;;;;4922701;29;20063;-63
2022/05/05 00:06:27;;;;;;;3.90;2.67;;;;;;;;;;4938417;29;20055;-63
2022/05/05 00:08:58;;;;;;;4.05;2.38;;;;;;;;;;4954594;28;20055;-63
2022/05/05 00:14:24;;;;;;;5.53;2.20;;;;;;;;;;4954556;29;20082;-63
2022/05/05 00:17:01;;;;;;;7.57;3.47;;;;;;;;;;4921589;29;20056;-63
2022/05/05 00:19:34;;;;;;;8.45;3.50;;;;;;;;;;4916116;29;20063;-63
2022/05/05 00:22:06;;;;;;;4.32;2.55;;;;;;;;;;4916044;29;20060;-63
2022/05/05 00:24:38;;;;;;;8.43;2.33;;;;;;;;;;4930748;29;20412;-63
2022/05/05 00:27:09;;;;;;;6.00;3.00;;;;;;;;;;4903442;29;20056;-63
2022/05/05 00:29:40;;;;;;;6.85;2.70;;;;;;;;;;4980032;28;20195;-63
2022/05/05 00:32:11;;;;;;;5.32;2.45;;;;;;;;;;4992558;28;20050;-63
2022/05/05 00:34:42;;;;;;;9.70;3.03;;;;;;;;;;4976337;28;20059;-63
2022/05/05 00:37:13;;;;;;;7.22;3.60;;;;;;;;;;4960523;28;20058;-63
2022/05/05 00:39:43;;;;;;;5.43;3.22;;;;;;;;;;4991571;28;20054;-63
2022/05/05 00:42:16;;;;;;;5.97;2.83;;;;;;;;;;4976112;28;20537;-63
2022/05/05 00:44:47;;;;;;;8.18;3.30;;;;;;;;;;4992802;28;20158;-63
2022/05/05 00:47:20;;;;;;;7.75;3.35;;;;;;;;;;4992502;28;20069;-63
2022/05/05 00:49:52;;;;;;;4.57;2.38;;;;;;;;;;4992394;28;20498;-63
2022/05/05 00:52:23;;;;;;;5.18;2.80;;;;;;;;;;4992447;28;20046;-63
2022/05/05 00:54:57;;;;;;;4.72;2.47;;;;;;;;;;5013627;28;20061;-63
2022/05/05 00:57:29;;;;;;;7.28;3.25;;;;;;;;;;5053978;28;20041;-63
2022/05/05 01:00:01;;;;;;;5.28;2.88;;;;;;;;;;5071225;28;20527;-63
2022/05/05 01:02:32;;;;;;;;;;;;;;;;;;5038889;28;20408;-63
2022/05/05 01:05:04;;;;;;;4.85;2.60;;;;;;;;;;5071656;28;19920;-63
2022/05/05 01:07:35;;;;;;;5.00;2.70;;;;;;;;;;5071448;28;20053;-63
2022/05/05 01:10:06;;;;;;;6.43;2.72;;;;;;;;;;5038237;28;20052;-63
2022/05/05 01:12:37;;;;;;;5.70;2.40;;;;;;;;;;5005914;28;20044;-63
2022/05/05 01:15:08;;;;;;;8.50;2.70;;;;;;;;;;5022498;28;20052;-63
2022/05/05 01:17:39;;;;;;;6.60;3.42;;;;;;;;;;5071285;28;20060;-63
2022/05/05 01:20:14;;;;;;;5.10;2.50;;;;;;;;;;5071309;28;20488;-63
2022/05/05 01:22:46;;;;;;;5.32;3.05;;;;;;;;;;5021757;28;20071;-63
2022/05/05 01:28:15;;;;;;;5.68;2.80;;;;;;;;;;5071234;28;20062;-63
2022/05/05 01:30:48;;;;;;;5.40;2.92;;;;;;;;;;5071103;28;20067;-63
2022/05/05 01:33:23;;;;;;;5.15;2.92;;;;;;;;;;5071204;28;20507;-63
2022/05/05 01:35:56;;;;;;;5.53;3.10;;;;;;;;;;5030716;28;20614;-63
2022/05/05 01:38:42;;;;;;;4.65;2.60;;;;;;;;;;5014043;28;20053;-63
2022/05/05 01:41:14;;;;;;;5.85;2.72;;;;;;;;;;4994991;28;20061;-63
2022/05/05 01:43:45;;;;;;;4.55;2.70;;;;;;;;;;5011239;28;20052;-63
2022/05/05 01:46:16;;;;;;;5.78;2.97;;;;;;;;;;5011081;28;20053;-63
2022/05/05 01:48:47;;;;;;;4.10;1.98;;;;;;;;;;5011081;28;20421;-63
2022/05/05 01:51:18;;;;;;;4.78;2.35;;;;;;;;;;5011032;28;20057;-63
2022/05/05 01:53:48;;;;;;;5.10;2.53;;;;;;;;;;4995093;28;20061;-63
2022/05/05 01:56:20;;;;;;;6.68;3.20;;;;;;;;;;4962221;28;20061;-63
2022/05/05 01:58:51;;;;;;;7.15;2.80;;;;;;;;;;5013358;28;20061;-63
2022/05/05 02:01:22;;;;;;;9.73;2.42;;;;;;;;;;5030308;28;20065;-63
2022/05/05 02:03:53;;;;;;;3.42;2.13;;;;;;;;;;5030676;28;20045;-63
2022/05/05 02:06:24;;;;;;;4.18;2.25;;;;;;;;;;5030476;28;20219;-63
2022/05/05 02:08:57;;;;;;;4.38;1.90;;;;;;;;;;5030567;28;20052;-63
2022/05/05 02:11:27;;;;;;;8.02;3.13;;;;;;;;;;5030386;28;20041;-63
2022/05/05 02:13:58;;;;;;;5.93;1.95;;;;;;;;;;5041113;28;20504;-63
2022/05/05 02:16:28;;;;;;;5.72;2.58;;;;;;;;;;5069765;28;20071;-63
2022/05/05 02:18:59;;;;;;;3.65;2.30;;;;;;;;;;5070277;28;20056;-63
2022/05/05 02:21:30;;;;;;;3.67;2.10;;;;;;;;;;5029632;28;20056;-63
2022/05/05 02:24:00;;;;;;;5.55;2.25;;;;;;;;;;5013985;28;20068;-63
2022/05/05 02:26:31;;;;;;;7.68;2.47;;;;;;;;;;4997256;28;20156;-63
2022/05/05 02:29:02;;;;;;;7.80;2.88;;;;;;;;;;4997307;28;20049;-63
2022/05/05 02:31:32;;;;;;;5.28;2.40;;;;;;;;;;5029662;28;20060;-63
2022/05/05 02:34:08;;;;;;;6.28;2.20;;;;;;;;;;5029942;28;20057;-63
2022/05/05 02:39:41;;;;;;;4.90;1.75;;;;;;;;;;4990527;28;20426;-63
2022/05/05 02:42:12;;;;;;;5.85;2.45;;;;;;;;;;4957911;28;20498;-63
2022/05/05 02:44:42;;;;;;;6.30;2.30;;;;;;;;;;4990466;28;20042;-63
2022/05/05 02:47:13;;;;;;;3.63;1.70;;;;;;;;;;4974764;28;20430;-63
2022/05/05 02:49:44;;;;;;;6.15;2.45;;;;;;;;;;4990287;28;20055;-63
2022/05/05 02:52:15;;;;;;;4.05;2.15;;;;;;;;;;4958119;28;20055;-63
2022/05/05 02:54:50;;;;;;;4.90;2.33;;;;;;;;;;5005241;28;20497;-63
2022/05/05 02:57:23;;;;;;;4.75;3.00;;;;;;;;;;4993434;28;20054;-63
2022/05/05 02:59:55;;;;;;;3.03;1.40;;;;;;;;;;4964914;28;20374;-63
2022/05/05 03:02:26;;;;;;;4.03;2.10;;;;;;;;;;5009340;28;20062;-63
2022/05/05 03:04:57;;;;;;;5.60;2.53;;;;;;;;;;5009796;28;20050;-63
2022/05/05 03:07:28;;;;;;;4.13;2.28;;;;;;;;;;5009884;28;20056;-63
2022/05/05 03:09:59;;;;;;;3.88;1.90;;;;;;;;;;5026089;28;20057;-63
2022/05/05 03:12:29;;;;;;;8.10;2.10;;;;;;;;;;4997442;28;20058;-63
2022/05/05 03:15:00;;;;;;;5.15;2.15;;;;;;;;;;5043120;28;20063;-63
2022/05/05 03:17:31;;;;;;;4.28;2.10;;;;;;;;;;5053464;28;20060;-63
2022/05/05 03:20:04;;;;;;;3.92;2.30;;;;;;;;;;5049031;28;20060;-63
2022/05/05 03:22:34;;;;;;;;;;;;;;;;;;5049575;28;20053;-63
2022/05/05 03:25:05;;;;;;;4.25;2.55;;;;;;;;;;5049222;28;19963;-63
2022/05/05 03:27:39;;;;;;;4.13;2.13;;;;;;;;;;5049380;28;20091;-63
2022/05/05 03:30:10;;;;;;;5.90;2.95;;;;;;;;;;4984684;28;20072;-63
2022/05/05 03:32:42;;;;;;;6.50;3.42;;;;;;;;;;5048919;28;20060;-63
2022/05/05 03:35:12;;;;;;;6.88;3.10;;;;;;;;;;5032686;28;20064;-63
2022/05/05 03:37:43;;;;;;;6.60;2.95;;;;;;;;;;5049217;28;20616;-63
2022/05/05 03:40:14;;;;;;;7.20;3.28;;;;;;;;;;4999715;28;20041;-63
2022/05/05 03:42:44;;;;;;;6.60;2.50;;;;;;;;;;5049157;28;20049;-63
2022/05/05 03:45:15;;;;;;;4.90;2.95;;;;;;;;;;5049042;28;20077;-63
2022/05/05 03:47:45;;;;;;;4.82;2.35;;;;;;;;;;5032236;28;20547;-63
2022/05/05 03:50:16;;;;;;;5.70;3.25;;;;;;;;;;5032248;28;20056;-63
2022/05/05 03:52:47;;;;;;;5.20;2.40;;;;;;;;;;5049097;28;20048;-63
2022/05/05 03:55:18;;;;;;;5.63;2.30;;;;;;;;;;4992539;28;20053;-63
2022/05/05 03:57:54;;;;;;;4.45;2.22;;;;;;;;;;5037373;28;20049;-63
2022/05/05 04:00:25;;;;;;;4.60;2.45;;;;;;;;;;5028840;28;20054;-63
2022/05/05 04:05:44;;;;;;;4.15;2.10;;;;;;;;;;5028778;28;20505;-63
2022/05/05 04:08:15;;;;;;;4.22;2.28;;;;;;;;;;5029001;28;20049;-63
2022/05/05 04:10:46;;;;;;;7.25;3.08;;;;;;;;;;5022311;28;20053;-63
2022/05/05 04:13:18;;;;;;;5.50;2.47;;;;;;;;;;5013954;28;20057;-63
2022/05/05 04:15:49;;;;;;;5.82;2.72;;;;;;;;;;4983647;28;20056;-63
2022/05/05 04:18:20;;;;;;;5.10;1.95;;;;;;;;;;5032752;28;20413;-63
2022/05/05 04:20:51;;;;;;;5.13;2.60;;;;;;;;;;5032404;28;20057;-63
2022/05/05 04:23:22;;;;;;;3.85;1.77;;;;;;;;;;5012589;28;20382;-63
2022/05/05 04:26:14;;;;;;;5.75;2.20;;;;;;;;;;5012564;28;20065;-63
2022/05/05 04:28:47;;;;;;;4.45;2.55;;;;;;;;;;5008704;28;20050;-63
2022/05/05 04:31:19;;;;;;;5.10;2.45;;;;;;;;;;4992812;28;20081;-62
2022/05/05 04:33:50;;;;;;;5.18;2.42;;;;;;;;;;5009777;28;20061;-63
2022/05/05 04:36:21;;;;;;;6.72;2.58;;;;;;;;;;4963578;28;20140;-63
2022/05/05 04:38:52;;;;;;;4.80;2.40;;;;;;;;;;5012544;28;20053;-63
2022/05/05 04:41:23;;;;;;;4.75;1.83;;;;;;;;;;5012260;28;20413;-63
2022/05/05 04:43:53;;;;;;;13.27;2.80;;;;;;;;;;4973131;28;20054;-63
2022/05/05 04:46:23;;;;;;;5.10;2.22;;;;;;;;;;4941269;28;20610;-63
2022/05/05 04:48:56;;;;;;;4.30;2.60;;;;;;;;;;4987171;28;20061;-63
2022/05/05 04:51:27;;;;;;;5.63;2.05;;;;;;;;;;4992407;28;20433;-63
2022/05/05 04:53:58;;;;;;;3.15;1.63;;;;;;;;;;5011851;28;20401;-63
2022/05/05 04:56:28;;;;;;;4.43;2.00;;;;;;;;;;5011804;28;20049;-63
2022/05/05 04:58:58;;;;;;;3.15;2.00;;;;;;;;;;4963116;28;20065;-63
2022/05/05 05:01:29;;;;;;;4.93;2.05;;;;;;;;;;5028092;28;20057;-63
2022/05/05 05:04:02;;;;;;;5.35;2.28;;;;;;;;;;4992109;28;20533;-63
2022/05/05 05:06:33;;;;;;;6.55;1.63;;;;;;;;;;4932940;28;20059;-63
2022/05/05 05:09:03;;;;;;;2.63;1.60;;;;;;;;;;4984431;28;20051;-63
2022/05/05 05:11:34;;;;;;;5.60;1.95;;;;;;;;;;4953294;28;20543;-63
2022/05/05 05:14:05;;;;;;;3.70;2.05;;;;;;;;;;4953490;28;20062;-63
2022/05/05 05:16:36;;;;;;;4.32;1.50;;;;;;;;;;4921358;29;20062;-63
2022/05/05 05:19:10;;;;;;;2.97;1.63;;;;;;;;;;4953347;28;20062;-63
2022/05/05 05:21:47;;;;;;;3.28;1.85;;;;;;;;;;4941816;29;20086;-63
2022/05/05 05:24:18;;;;;;;2.83;1.60;;;;;;;;;;4917515;29;20055;-63
2022/05/05 05:26:49;;;;;;;2.53;1.42;;;;;;;;;;4918108;29;20063;-63
2022/05/05 05:29:19;;;;;;;4.30;1.92;;;;;;;;;;4980230;28;20076;-63
2022/05/05 05:31:50;;;;;;;3.00;1.00;;;;;;;;;;4974260;28;20621;-63
2022/05/05 05:34:21;;;;;;;2.53;1.25;;;;;;;;;;5010738;28;20061;-64
2022/05/05 05:36:52;;;;;;;9.60;2.10;;;;;;;;;;4995435;28;20061;-63
2022/05/05 05:39:22;;;;;;;2.72;1.55;;;;;;;;;;4979404;28;20061;-63
2022/05/05 05:41:53;;;;;;;3.28;1.42;;;;;;;;;;4991155;28;20050;-63
2022/05/05 05:44:24;;;;;;;5.30;2.00;;;;;;;;;;4991630;28;20070;-63
2022/05/05 05:46:54;;;;;;;7.75;1.85;;;;;;;;;;5002936;28;20057;-63
2022/05/05 05:49:25;;;;;;;3.60;1.23;;;;;;;;;;5011221;28;20056;-63
2022/05/05 05:51:56;;;;;;;4.30;1.70;;;;;;;;;;4994146;28;20050;-63
2022/05/05 05:54:26;;;;;;;2.38;1.13;;;;;;;;;;5010965;28;20442;-63
2022/05/05 05:56:57;;;;;;;2.90;1.63;;;;;;;;;;5010839;28;20058;-63
2022/05/05 05:59:27;;;;;;;3.90;1.88;;;;;;;;;;4991105;28;20318;-63
2022/05/05 06:04:47;;;;;;;2.75;1.55;;;;;;;;;;4991151;28;20077;-63
2022/05/05 06:07:18;;;;;;;3.97;1.90;;;;;;;;;;4943022;28;20066;-63
2022/05/05 06:09:48;;;;;;;2.83;1.80;;;;;;;;;;4991199;28;20046;-63
2022/05/05 06:12:19;;;;;;;4.13;2.05;;;;;;;;;;4990750;28;20073;-63
2022/05/05 06:14:49;;;;;;;4.50;1.80;;;;;;;;;;4991193;28;20058;-63
2022/05/05 06:17:21;;;;;;;4.53;1.67;;;;;;;;;;4991320;28;20156;-63
2022/05/05 06:19:51;;;;;;;3.03;1.58;;;;;;;;;;4990934;28;20046;-63
2022/05/05 06:22:21;;;;;;;8.23;1.80;;;;;;;;;;4990651;28;20050;-63
2022/05/05 06:24:53;;;;;;;2.88;1.40;;;;;;;;;;4990888;28;20634;-63
2022/05/05 06:27:25;;;;;;;3.67;1.73;;;;;;;;;;4975248;28;20042;-63
2022/05/05 06:29:55;;;;;;;6.28;1.90;;;;;;;;;;5003384;28;20593;-63
2022/05/05 06:32:26;;;;;;;4.70;1.90;;;;;;;;;;4978116;28;20061;-63
2022/05/05 06:34:57;;;;;;;6.10;1.92;;;;;;;;;;5010379;28;20517;-63
2022/05/05 06:37:27;;;;;;;2.17;1.40;;;;;;;;;;4987949;28;20516;-63
2022/05/05 06:39:58;;;;;;;5.82;1.73;;;;;;;;;;5013528;28;20064;-63
2022/05/05 06:42:29;;;;;;;5.97;1.63;;;;;;;;;;5029577;28;20736;-63
2022/05/05 06:44:59;;;;;;;2.83;1.52;;;;;;;;;;5030038;28;20053;-63
2022/05/05 06:47:30;;;;;;;5.35;2.20;;;;;;;;;;5009771;28;20056;-63
2022/05/05 06:50:01;;;;;;;4.07;1.80;;;;;;;;;;5010093;28;20610;-63
2022/05/05 06:52:31;;;;;;;4.20;1.55;;;;;;;;;;5009921;28;20058;-63
2022/05/05 06:55:09;;;;;;;2.28;1.48;;;;;;;;;;5010048;28;20041;-63
2022/05/05 06:57:40;;;;;;;5.78;1.48;;;;;;;;;;5033850;28;20483;-63
2022/05/05 07:00:11;;;;;;;3.65;2.47;;;;;;;;;;5016369;28;20524;-63
2022/05/05 07:02:42;;;;;;;4.43;2.25;;;;;;;;;;5000495;28;20060;-63
2022/05/05 07:05:27;;;;;;;4.35;2.10;;;;;;;;;;5049519;28;20057;-63
2022/05/05 07:07:57;;;;;;;6.25;2.53;;;;;;;;;;5029477;28;20054;-63
2022/05/05 07:13:17;;;;;;;6.68;2.03;;;;;;;;;;5029503;28;20057;-63
2022/05/05 07:15:48;;;;;;;4.90;1.77;;;;;;;;;;5029330;28;20042;-63
2022/05/05 07:18:19;;;;;;;3.72;1.55;;;;;;;;;;5029444;28;20398;-63
2022/05/05 07:20:50;;;;;;;5.57;1.83;;;;;;;;;;5029360;28;20074;-63
2022/05/05 07:23:20;;;;;;;3.28;1.70;;;;;;;;;;5013476;28;20049;-63
2022/05/05 07:25:51;;;;;;;3.78;2.05;;;;;;;;;;5031974;28;20063;-63
2022/05/05 07:28:22;;;;;;;5.82;1.80;;;;;;;;;;5052554;28;20056;-63
2022/05/05 07:30:54;;;;;;;3.08;1.75;;;;;;;;;;5069186;28;20044;-63
2022/05/05 07:33:25;;;;;;;3.97;2.10;;;;;;;;;;5069269;28;20331;-63
2022/05/05 07:35:55;;;;;;;5.07;1.70;;;;;;;;;;5048765;28;20076;-63
2022/05/05 07:38:26;;;;;;;5.25;1.70;;;;;;;;;;5016033;28;20060;-63
2022/05/05 07:40:56;;;;;;;2.88;1.70;;;;;;;;;;5015898;28;20524;-63
2022/05/05 07:43:27;;;;;;;2.60;1.55;;;;;;;;;;5049118;28;20048;-63
2022/05/05 07:45:58;;;;;;;6.65;1.52;;;;;;;;;;5049084;28;20065;-63
2022/05/05 07:48:29;;;;;;;2.85;1.80;;;;;;;;;;5002443;28;20188;-63
2022/05/05 07:50:59;;;;;;;2.58;1.65;;;;;;;;;;5032799;28;20056;-63
2022/05/05 07:53:31;;;;;;;4.03;1.75;;;;;;;;;;4983824;28;20057;-63
2022/05/05 07:56:02;;;;;;;3.55;1.77;;;;;;;;;;5000670;28;20053;-63
2022/05/05 07:58:34;;;;;;;4.07;1.73;;;;;;;;;;5016910;28;20533;-63
2022/05/05 08:01:04;;;;;;;3.75;1.45;;;;;;;;;;5012942;28;20054;-63
2022/05/05 08:03:35;;;;;;;3.88;1.52;;;;;;;;;;4980238;28;20058;-63
2022/05/05 08:06:05;;;;;;;2.78;1.73;;;;;;;;;;5012954;28;20076;-63
2022/05/05 08:08:36;;;;;;;2.40;1.30;;;;;;;;;;5013145;28;20413;-63
2022/05/05 08:11:07;;;;;;;3.78;2.05;;;;;;;;;;4993002;28;20047;-63
2022/05/05 08:13:38;;;;;;;2.47;1.60;;;;;;;;;;4983703;28;20050;-63
2022/05/05 08:16:08;;;;;;;2.25;1.30;;;;;;;;;;4993195;28;20126;-63
2022/05/05 08:18:39;;;;;;;5.75;1.52;;;;;;;;;;4993288;28;20065;-63
2022/05/05 08:21:10;;;;;;;5.40;1.80;;;;;;;;;;4976924;28;20186;-63
2022/05/05 08:23:41;;;;;;;2.83;1.52;;;;;;;;;;4948071;28;20086;-63
2022/05/05 08:29:00;;;;;;;3.70;1.38;;;;;;;;;;4980035;28;20054;-63
2022/05/05 08:31:30;;;;;;;3.53;1.67;;;;;;;;;;5012498;28;20054;-63
2022/05/05 08:34:01;;;;;;;4.22;2.22;;;;;;;;;;5012618;28;20046;-63
2022/05/05 08:36:32;;;;;;;2.03;1.38;;;;;;;;;;4992533;28;20046;-63
2022/05/05 08:39:02;;;;;;;10.13;1.85;;;;;;;;;;4985734;28;20050;-63
2022/05/05 08:41:34;;;;;;;4.93;1.98;;;;;;;;;;4960278;28;20061;-63
2022/05/05 08:44:04;;;;;;;5.88;1.33;;;;;;;;;;4973125;28;20431;-63
2022/05/05 08:46:35;;;;;;;3.45;1.65;;;;;;;;;;4973290;28;20070;-63
2022/05/05 08:49:08;;;;;;;4.35;1.60;;;;;;;;;;4948497;28;20067;-63
2022/05/05 08:51:49;;;;;;;5.97;1.60;;;;;;;;;;4934543;29;20056;-63
2022/05/05 08:54:23;;;;;;;8.18;1.40;;;;;;;;;;4934769;29;20415;-63
2022/05/05 08:56:56;;;;;;;4.75;1.70;;;;;;;;;;4934562;29;20464;-63
2022/05/05 08:59:27;;;;;;;4.25;1.58;;;;;;;;;;4952446;28;20059;-63
2022/05/05 09:01:58;;;;;;;4.07;1.60;;;;;;;;;;4948787;28;20054;-63
2022/05/05 09:04:29;;;;;;;3.88;1.77;;;;;;;;;;4953564;28;20120;-63
2022/05/05 09:07:00;;;;;;;2.92;1.48;;;;;;;;;;4906142;28;20055;-63
2022/05/05 09:09:34;;;;;;;3.33;1.88;;;;;;;;;;4915132;29;20052;-63
2022/05/05 09:12:10;;;;;;;3.17;1.60;;;;;;;;;;4899476;29;20055;-63
2022/05/05 09:14:47;;;;;;;3.00;1.15;;;;;;;;;;4915101;29;20457;-63
2022/05/05 09:17:24;;;;;;;3.55;1.90;;;;;;;;;;4944207;28;20102;-63
2022/05/05 09:19:56;;;;;;;4.20;2.00;;;;;;;;;;4919170;29;20055;-63
2022/05/05 09:22:28;;;;;;;6.95;2.60;;;;;;;;;;4906021;29;20051;-63
2022/05/05 09:25:01;;;;;;;6.10;4.25;;;;;;;;;;4953129;28;20055;-63
2022/05/05 09:27:33;;;;;;;;;;;;;;;;;;4934415;29;20056;-63
2022/05/05 09:30:08;;;;;;;6.00;3.25;;;;;;;;;;4886753;29;19929;-63
2022/05/05 09:32:40;;;;;;;5.00;2.97;;;;;;;;;;4933937;29;20059;-63
2022/05/05 09:35:13;;;;;;;5.95;3.03;;;;;;;;;;4914626;29;20048;-63
2022/05/05 09:37:54;;;;;;;6.47;2.70;;;;;;;;;;4870048;29;20056;-63
2022/05/05 09:40:24;;;;;;;7.07;3.53;;;;;;;;;;4895928;29;20055;-63
2022/05/05 09:42:56;;;;;;;6.38;3.47;;;;;;;;;;4896049;29;20045;-62
2022/05/05 09:45:33;;;;;;;12.48;5.32;;;;;;;;;;4903974;29;20059;-63
2022/05/05 09:48:04;;;;;;;12.60;5.28;;;;;;;;;;4933098;29;20052;-63
2022/05/05 09:50:37;;;;;;;13.70;5.72;;;;;;;;;;4933538;29;20071;-63
2022/05/05 09:58:52;;;;;;;16.67;6.65;;;;;;;;;;4956992;28;20066;-63
2022/05/05 10:01:31;;;;;;;12.77;5.97;;;;;;;;;;4991358;28;20048;-62
2022/05/05 10:04:05;;;;;;;13.77;6.15;;;;;;;;;;4959185;28;20061;-62
2022/05/05 10:06:37;;;;;;;12.48;5.43;;;;;;;;;;4991211;28;20061;-62
2022/05/05 10:09:11;;;;;;;10.15;5.60;;;;;;;;;;4990869;28;20061;-62
2022/05/05 10:11:43;;;;;;;15.10;7.13;;;;;;;;;;4991606;28;20135;-62
2022/05/05 10:14:16;;;;;;;13.82;6.28;;;;;;;;;;5010607;28;20533;-62
2022/05/05 10:16:47;;;;;;;14.95;7.78;;;;;;;;;;4994476;28;20058;-62
2022/05/05 10:19:18;;;;;;;14.10;7.50;;;;;;;;;;4961543;28;20049;-62
2022/05/05 10:22:09;;;;;;;17.42;8.90;;;;;;;;;;5010591;28;20058;-62
2022/05/05 10:24:46;;;;;;;15.18;7.68;;;;;;;;;;5013472;28;20536;-62
2022/05/05 10:27:17;;;;;;;19.92;9.40;;;;;;;;;;5016935;28;20575;-62
2022/05/05 10:29:48;;;;;;;28.90;9.27;;;;;;;;;;5033674;28;20044;-62
2022/05/05 10:32:26;;;;;;;17.17;8.77;;;;;;;;;;5049906;28;20052;-62
2022/05/05 10:35:09;;;;;;;17.13;8.68;;;;;;;;;;5050149;28;20056;-62
2022/05/05 10:37:40;;;;;;;19.58;9.63;;;;;;;;;;5016794;28;20116;-62
2022/05/05 10:40:12;;;;;;;19.45;9.98;;;;;;;;;;5049828;28;20064;-62
2022/05/05 10:42:50;;;;;;;20.63;7.97;;;;;;;;;;5049769;28;20392;-62
2022/05/05 10:45:33;;;;;;;19.83;8.80;;;;;;;;;;5049706;28;20068;-62
2022/05/05 10:48:08;;;;;;;21.30;8.70;;;;;;;;;;5073185;28;20048;-62
2022/05/05 10:50:53;;;;;;;20.08;7.97;;;;;;;;;;5092218;28;20055;-62
2022/05/05 10:53:40;;;;;;;21.52;8.25;;;;;;;;;;5056462;28;20048;-62
2022/05/05 10:56:30;;;;;;;23.10;11.00;;;;;;;;;;5074573;28;20043;-62
2022/05/05 10:59:09;;;;;;;19.83;8.82;;;;;;;;;;5056046;28;20052;-62
2022/05/05 11:01:43;;;;;;;20.52;7.95;;;;;;;;;;5092128;28;20044;-62
2022/05/05 11:04:26;;;;;;;21.98;8.32;;;;;;;;;;5091958;28;20066;-63
2022/05/05 11:07:30;;;;;;;25.40;8.98;;;;;;;;;;5092000;28;20047;-62
2022/05/05 11:10:01;;;;;;;23.88;7.38;;;;;;;;;;5091900;28;20407;-62
2022/05/05 11:12:34;;;;;;;20.65;7.47;;;;;;;;;;5032413;28;20041;-62
2022/05/05 11:23:51;;;;;;;13.13;6.05;;;;;;;;;;5048780;28;20057;-62
2022/05/05 11:26:22;;;;;;;10.10;5.80;;;;;;;;;;5049208;28;20055;-62
2022/05/05 11:28:53;;;;;;;13.38;6.22;;;;;;;;;;5049314;28;20045;-62
2022/05/05 11:31:30;;;;;;;10.40;5.35;;;;;;;;;;5049153;28;20056;-63
2022/05/05 11:34:04;;;;;;;14.10;5.72;;;;;;;;;;5032939;28;20076;-61
2022/05/05 11:36:41;;;;;;;10.43;5.18;;;;;;;;;;5032225;28;20136;-63
2022/05/05 11:39:12;;;;;;;11.20;5.65;;;;;;;;;;4999825;28;20060;-62
2022/05/05 11:41:42;;;;;;;9.38;4.25;;;;;;;;;;5049098;28;20060;-62
2022/05/05 11:44:17;;;;;;;8.68;4.28;;;;;;;;;;5049347;28;20512;-62
2022/05/05 11:46:49;;;;;;;10.15;4.88;;;;;;;;;;5048959;28;20045;-62
2022/05/05 11:49:21;;;;;;;10.63;4.57;;;;;;;;;;5038390;28;20052;-63
2022/05/05 11:51:55;;;;;;;11.57;6.18;;;;;;;;;;5091404;28;20056;-63
2022/05/05 11:54:31;;;;;;;12.70;5.47;;;;;;;;;;5091475;28;20044;-62
2022/05/05 11:57:02;;;;;;;11.55;5.32;;;;;;;;;;5056826;28;20067;-62
2022/05/05 12:02:25;;;;;;;13.73;5.35;;;;;;;;;;5048877;28;20057;-62
2022/05/05 12:04:59;;;;;;;12.50;6.30;;;;;;;;;;5048947;28;20053;-64
2022/05/05 12:07:31;;;;;;;16.02;6.78;;;;;;;;;;5048953;28;20056;-61
2022/05/05 12:10:07;;;;;;;13.50;5.10;;;;;;;;;;5015857;28;20053;-62
2022/05/05 12:12:42;;;;;;;12.35;4.68;;;;;;;;;;5048957;28;20500;-62
2022/05/05 12:15:16;;;;;;;9.93;4.72;;;;;;;;;;5028733;28;20050;-62
2022/05/05 12:17:54;;;;;;;13.88;4.40;;;;;;;;;;4996708;28;20057;-62
2022/05/05 12:20:27;;;;;;;8.65;3.75;;;;;;;;;;5028897;28;20045;-62
2022/05/05 12:23:00;;;;;;;10.02;4.45;;;;;;;;;;4989520;28;20058;-61
2022/05/05 12:25:30;;;;;;;9.68;4.05;;;;;;;;;;4989372;28;20050;-62
2022/05/05 12:28:05;;;;;;;10.35;5.00;;;;;;;;;;4973190;28;20062;-62
2022/05/05 12:30:40;;;;;;;10.13;4.43;;;;;;;;;;4989336;28;20518;-62
2022/05/05 12:33:13;;;;;;;11.40;3.25;;;;;;;;;;4989952;28;20058;-62
2022/05/05 12:35:46;;;;;;;5.63;2.58;;;;;;;;;;4975783;28;20065;-62
2022/05/05 12:38:17;;;;;;;6.03;1.92;;;;;;;;;;4992916;28;20402;-61
2022/05/05 12:41:10;;;;;;;3.90;1.63;;;;;;;;;;4992884;28;20053;-61
2022/05/05 12:43:41;;;;;;;4.93;2.05;;;;;;;;;;5003247;28;20050;-61
2022/05/05 12:46:16;;;;;;;4.28;2.13;;;;;;;;;;4988785;28;20054;-62
2022/05/05 12:48:53;;;;;;;8.95;4.05;;;;;;;;;;4953638;29;20044;-63
2022/05/05 12:51:35;;;;;;;7.18;2.15;;;;;;;;;;4922281;29;20190;-61
2022/05/05 12:59:47;;;;;;;16.48;8.43;;;;;;;;;;4923318;28;20062;-61
2022/05/05 13:02:19;;;;;;;16.98;6.82;;;;;;;;;;4938200;28;20055;-62
2022/05/05 13:04:50;;;;;;;2.47;1.10;;;;;;;;;;4937566;28;20082;-62
2022/05/05 13:07:21;;;;;;;5.75;2.65;;;;;;;;;;4953719;28;20086;-61
2022/05/05 13:09:53;;;;;;;2.88;1.20;;;;;;;;;;4937602;28;20541;-63
2022/05/05 13:12:25;;;;;;;2.25;0.40;;;;;;;;;;4953209;28;20434;-61
2022/05/05 13:14:55;;;;;;;3.65;1.50;;;;;;;;;;4933947;29;20052;-61
2022/05/05 13:17:26;;;;;;;2.95;0.80;;;;;;;;;;4934303;29;20487;-62
2022/05/05 13:19:56;;;;;;;4.03;1.48;;;;;;;;;;4934223;29;20055;-61
2022/05/05 13:22:29;;;;;;;1.85;1.75;;;;;;;;;;4934160;29;20047;-62
2022/05/05 13:25:00;;;;;;;3.53;1.65;;;;;;;;;;4918921;29;20079;-62
2022/05/05 13:27:30;;;;;;;5.32;1.65;;;;;;;;;;4951961;29;20412;-63
2022/05/05 13:30:01;;;;;;;3.80;1.20;;;;;;;;;;4953286;29;20466;-62
2022/05/05 13:32:34;;;;;;;4.97;1.85;;;;;;;;;;4991347;28;20056;-61
2022/05/05 13:35:05;;;;;;;6.57;1.70;;;;;;;;;;4979579;28;20065;-61
2022/05/05 13:37:37;;;;;;;6.40;2.40;;;;;;;;;;5011484;28;20533;-61
2022/05/05 13:40:09;;;;;;;2.75;1.30;;;;;;;;;;5022898;28;20053;-61
2022/05/05 13:42:39;;;;;;;13.50;5.68;;;;;;;;;;5031015;28;20041;-62
2022/05/05 13:45:10;;;;;;;3.30;1.67;;;;;;;;;;5030679;28;20529;-62
2022/05/05 13:47:41;;;;;;;13.32;5.72;;;;;;;;;;5031078;28;20046;-64
2022/05/05 13:50:15;;;;;;;2.90;0.90;;;;;;;;;;4991634;28;20414;-62
2022/05/05 13:52:46;;;;;;;2.30;1.35;;;;;;;;;;5026358;28;20057;-63
2022/05/05 13:55:16;;;;;;;3.13;1.27;;;;;;;;;;5034464;28;20091;-62
2022/05/05 13:57:48;;;;;;;3.72;1.75;;;;;;;;;;5050650;28;20055;-62
2022/05/05 14:00:20;;;;;;;2.95;1.27;;;;;;;;;;5017600;28;20068;-62
2022/05/05 14:02:52;;;;;;;1.00;0.82;;;;;;;;;;5017337;28;20528;-62
2022/05/05 14:05:27;;;;;;;2.30;1.60;;;;;;;;;;5050540;28;20061;-62
2022/05/05 14:13:47;;;;;;;4.93;1.67;;;;;;;;;;4939659;28;20043;-62
2022/05/05 14:16:18;;;;;;;5.80;4.65;;;;;;;;;;4971779;28;20163;-62
2022/05/05 14:18:49;;;;;;;5.45;1.50;;;;;;;;;;4971768;28;20058;-62
2022/05/05 14:21:19;;;;;;;4.32;1.60;;;;;;;;;;4971782;28;20059;-62
2022/05/05 14:23:51;;;;;;;5.07;2.67;;;;;;;;;;4971621;28;20055;-62
2022/05/05 14:26:21;;;;;;;6.55;1.60;;;;;;;;;;4955596;28;20059;-62
2022/05/05 14:28:51;;;;;;;4.45;1.52;;;;;;;;;;4973770;28;20159;-63
2022/05/05 14:31:22;;;;;;;4.10;0.90;;;;;;;;;;4958700;28;20419;-62
2022/05/05 14:33:53;;;;;;;3.70;1.30;;;;;;;;;;4990781;28;20054;-62
2022/05/05 14:36:24;;;;;;;2.97;1.20;;;;;;;;;;4958398;28;20062;-61
2022/05/05 14:38:55;;;;;;;3.58;1.52;;;;;;;;;;4990861;28;20046;-62
2022/05/05 14:41:26;;;;;;;6.50;1.55;;;;;;;;;;4990698;28;20058;-62
2022/05/05 14:43:57;;;;;;;3.38;1.00;;;;;;;;;;4990545;28;20091;-62
2022/05/05 14:46:28;;;;;;;4.57;1.45;;;;;;;;;;4994331;28;20039;-62
2022/05/05 14:48:59;;;;;;;2.63;1.25;;;;;;;;;;5046399;28;20048;-62
2022/05/05 14:51:30;;;;;;;3.75;1.98;;;;;;;;;;5069788;28;20060;-62
2022/05/05 14:54:01;;;;;;;2.40;1.20;;;;;;;;;;5069557;28;20067;-62
2022/05/05 14:56:32;;;;;;;3.17;1.30;;;;;;;;;;5036518;28;20064;-62
2022/05/05 14:59:03;;;;;;;2.90;1.08;;;;;;;;;;5068909;28;20207;-63
2022/05/05 15:01:34;;;;;;;3.72;1.10;;;;;;;;;;5069805;28;20075;-63
2022/05/05 15:04:05;;;;;;;3.58;1.17;;;;;;;;;;5069698;28;20055;-62
2022/05/05 15:06:36;;;;;;;6.10;1.00;;;;;;;;;;5069404;28;20052;-63
2022/05/05 15:09:07;;;;;;;2.80;1.00;;;;;;;;;;4976837;28;20053;-63
2022/05/05 15:11:38;;;;;;;5.57;1.45;;;;;;;;;;4954675;28;20050;-63
2022/05/05 15:14:09;;;;;;;2.60;0.95;;;;;;;;;;4922528;28;20051;-62
2022/05/05 15:16:40;;;;;;;1.48;1.00;;;;;;;;;;4970982;28;20065;-63
2022/05/05 15:19:11;;;;;;;2.90;1.05;;;;;;;;;;4970696;28;20491;-63
2022/05/05 15:21:41;;;;;;;6.57;1.00;;;;;;;;;;4970875;28;20055;-62
2022/05/05 15:24:13;;;;;;;4.05;1.55;;;;;;;;;;4970707;28;20063;-62
2022/05/05 15:26:43;;;;;;;2.35;0.95;;;;;;;;;;4980815;28;20042;-63
2022/05/05 15:29:17;;;;;;;6.55;0.73;;;;;;;;;;4989970;28;20396;-62
2022/05/05 15:31:47;;;;;;;3.50;0.90;;;;;;;;;;4973984;28;20554;-62
2022/05/05 15:34:18;;;;;;;4.90;0.65;;;;;;;;;;4989890;28;20426;-62
2022/05/05 15:36:49;;;;;;;3.05;1.00;;;;;;;;;;4973660;28;20158;-62
2022/05/05 15:39:21;;;;;;;1.65;0.70;;;;;;;;;;4989931;28;20125;-63
2022/05/05 15:41:58;;;;;;;2.63;1.55;;;;;;;;;;4990192;28;20522;-63
2022/05/05 15:44:32;;;;;;;2.47;1.05;;;;;;;;;;4989766;28;20645;-63
2022/05/05 15:47:04;;;;;;;2.47;0.90;;;;;;;;;;5014485;28;20158;-63
2022/05/05 15:49:38;;;;;;;3.35;1.10;;;;;;;;;;4977333;28;20062;-62
2022/05/05 15:52:09;;;;;;;1.45;0.50;;;;;;;;;;4954940;28;20536;-62
2022/05/05 15:54:40;;;;;;;2.63;1.20;;;;;;;;;;4970300;28;20058;-62
2022/05/05 15:57:11;;;;;;;1.48;1.10;;;;;;;;;;4970487;28;20062;-62
2022/05/05 15:59:43;;;;;;;;;;;;;;;;;;4970703;28;20445;-63
2022/05/05 16:02:17;;;;;;;5.43;1.10;;;;;;;;;;4935436;29;19922;-62